Sw Cap Ferrat 1 — 3FZK6 — position and weather

sailwx.info

Track history (hours):
 
Tides and Currents Weather Stations Pressure Air Temp Water Temp Dewpoint Dewpoint Depression Visibility Wind Speed Wind Dir Waves Ship Positions

Sw Cap Ferrat 1

Last reported at 2017-Oct-20 20:00 UTC. Time now 2017-Oct-20 20:08 UTC.
Position N 53°29' W 003°25'.

Length 183 m; draft 10.1 m.

Type: Tanker. MMSI: 374419000.

Date/timePositionNaut miles runAvg speedWind from/ knotsBaromVisibWave heightAir tempDewpointWater temp
2017-Oct-20 20:00N 53°29' W 003°25'0 0.2
2017-Oct-20 19:27N 53°29' W 003°25'0 0.1
2017-Oct-20 19:00N 53°29' W 003°25'0 0.1
2017-Oct-20 18:27N 53°29' W 003°25'0 0.0
2017-Oct-20 17:54N 53°29' W 003°25'0 1.3
2017-Oct-20 17:30N 53°29' W 003°26'510.2
2017-Oct-20 17:00N 53°30' W 003°35'612.8
2017-Oct-20 16:30N 53°31' W 003°45'612.3
2017-Oct-20 16:00N 53°32' W 003°56'5112.5
2017-Oct-20 11:55N 53°58' W 005°10'613.3
2017-Oct-20 11:30N 54°04' W 005°09'713.3
2017-Oct-20 11:00N 54°10' W 005°09'713.8
2017-Oct-20 10:30N 54°17' W 005°09'714.1
2017-Oct-20 10:01N 54°24' W 005°08'714.5
2017-Oct-20 09:30N 54°31' W 005°13'815.6
2017-Oct-20 09:01N 54°37' W 005°21'815.6
2017-Oct-20 08:31N 54°43' W 005°30'714.2
2017-Oct-20 08:00N 54°42' W 005°42'510.2
2017-Oct-20 07:30N 54°40' W 005°50'3 5.6
2017-Oct-20 07:00N 54°38' W 005°53'0 0.1
2017-Oct-20 04:17N 54°38' W 005°53'0 0.0
2017-Oct-20 02:50N 54°38' W 005°53'0 0.0
2017-Oct-20 02:26N 54°38' W 005°53'0 0.0
2017-Oct-20 01:44N 54°38' W 005°53'0 0.0
2017-Oct-20 01:23N 54°38' W 005°53'0 0.0
2017-Oct-19 23:26N 54°38' W 005°53'0 0.0
2017-Oct-19 21:56N 54°38' W 005°53'0 0.0
2017-Oct-19 18:56N 54°38' W 005°53'0 0.0
2017-Oct-19 17:38N 54°38' W 005°53'0 0.0
2017-Oct-19 16:59N 54°38' W 005°53'0 0.0
2017-Oct-19 16:11N 54°38' W 005°53'0 0.0
2017-Oct-19 12:59N 54°38' W 005°53'0 0.0
2017-Oct-19 10:11N 54°38' W 005°53'0 0.0
2017-Oct-19 09:44N 54°38' W 005°53'0 0.0
2017-Oct-19 09:29N 54°38' W 005°53'0 0.0
2017-Oct-19 08:59N 54°38' W 005°53'0 0.0
2017-Oct-19 08:29N 54°38' W 005°53'0 0.0
2017-Oct-19 06:11N 54°38' W 005°53'0 0.0
2017-Oct-19 04:05N 54°38' W 005°53'0 0.0
2017-Oct-19 03:05N 54°38' W 005°53'0 0.0
2017-Oct-19 00:35N 54°38' W 005°53'0 0.0
2017-Oct-19 00:11N 54°38' W 005°53'0 0.0
2017-Oct-18 20:05N 54°38' W 005°53'0 0.0
2017-Oct-18 20:00N 54°38' W 005°53'1 1.8
2017-Oct-18 19:30N 54°39' W 005°52'4 8.6
2017-Oct-18 19:00N 54°42' W 005°47'5 9.5
2017-Oct-18 18:30N 54°44' W 005°39'1 1.6
2017-Oct-18 17:59N 54°44' W 005°39'0 0.1
2017-Oct-18 17:29N 54°45' W 005°39'0 0.0
2017-Oct-18 16:59N 54°45' W 005°39'0 0.1
2017-Oct-18 16:29N 54°45' W 005°39'0 0.0
2017-Oct-18 15:56N 54°45' W 005°39'0 0.0
2017-Oct-18 15:29N 54°45' W 005°39'1 1.2
2017-Oct-18 15:00N 54°45' W 005°38'10 9.9
2017-Oct-18 14:00N 54°55' W 005°37'510.6
2017-Oct-18 13:30N 54°60' W 005°41'510.2
2017-Oct-18 13:00N 55°04' W 005°46'5 9.8
2017-Oct-18 12:30N 55°08' W 005°51'5 9.7
2017-Oct-18 12:01N 55°12' W 005°56'5 9.8
2017-Oct-18 11:31N 55°16' W 006°01'611.1
2017-Oct-18 11:00N 55°20' W 006°07'611.7
2017-Oct-18 10:30N 55°22' W 006°16'612.6
2017-Oct-18 10:00N 55°25' W 006°26'612.4
2017-Oct-18 09:30N 55°28' W 006°36'713.3
2017-Oct-18 08:58N 55°30' W 006°48'613.6
2017-Oct-18 08:30N 55°33' W 006°58'713.2
2017-Oct-18 08:00N 55°39' W 007°03'1013.6
2017-Oct-18 07:18N 55°48' W 007°09'513.6
2017-Oct-18 06:58N 55°52' W 007°12'21711.7
2017-Oct-17 12:31N 59°10' W 004°28'010.2
2017-Oct-17 12:30N 59°10' W 004°28'510.4
2017-Oct-17 12:00N 59°12' W 004°19'510.4
2017-Oct-17 11:30N 59°15' W 004°10'612.0
2017-Oct-17 11:00N 59°18' W 003°59'612.6
2017-Oct-17 10:30N 59°21' W 003°48'612.7
2017-Oct-17 10:00N 59°24' W 003°37'28412.5
2017-Oct-16 11:11N 57°60' E 005°05'2612.1
2017-Oct-16 09:05N 57°47' E 005°47'112.1
2017-Oct-16 08:59N 57°47' E 005°49'612.1
2017-Oct-16 08:30N 57°44' E 005°59'912.3
2017-Oct-16 07:48N 57°40' E 006°13'812.1
2017-Oct-16 07:08N 57°36' E 006°26'212.2
2017-Oct-16 06:59N 57°36' E 006°29'912.2
2017-Oct-16 06:17N 57°32' E 006°44'611.9
2017-Oct-16 05:47N 57°32' E 006°55'412.1
2017-Oct-16 05:29N 57°32' E 007°02'1211.8
2017-Oct-16 04:28N 57°32' E 007°24'611.8
2017-Oct-16 03:58N 57°32' E 007°35'3911.2
2017-Oct-16 00:31N 57°42' E 008°45'1511.1
2017-Oct-15 23:09N 57°48' E 009°12'1111.0
2017-Oct-15 22:09N 57°50' E 009°32'211.2
2017-Oct-15 21:58N 57°50' E 009°36'511.0
2017-Oct-15 21:29N 57°51' E 009°46'611.4
2017-Oct-15 21:00N 57°52' E 009°56'611.4
2017-Oct-15 20:29N 57°53' E 010°07'611.6
2017-Oct-15 20:00N 57°53' E 010°18'612.0
2017-Oct-15 19:30N 57°54' E 010°28'611.3
2017-Oct-15 19:00N 57°52' E 010°38'712.7
2017-Oct-15 18:29N 57°47' E 010°47'510.9
2017-Oct-15 18:00N 57°44' E 010°55'612.6
2017-Oct-15 17:30N 57°39' E 011°03'713.1
2017-Oct-15 17:00N 57°35' E 011°12'713.4
2017-Oct-15 16:30N 57°30' E 011°21'612.6
2017-Oct-15 16:00N 57°25' E 011°27'713.3
2017-Oct-15 15:30N 57°19' E 011°32'713.2
2017-Oct-15 15:00N 57°13' E 011°36'1312.8
2017-Oct-15 14:00N 57°00' E 011°44'4212.4
2017-Oct-15 10:37N 56°20' E 011°26'414.0
2017-Oct-15 10:18N 56°16' E 011°23'1013.6
2017-Oct-15 09:34N 56°08' E 011°12'213.8
2017-Oct-15 09:27N 56°06' E 011°10'4511.4
2017-Oct-15 05:29N 55°22' E 011°02'712.1
2017-Oct-15 04:52N 55°14' E 011°06'411.8
2017-Oct-15 04:30N 55°10' E 011°04'612.6
2017-Oct-15 04:00N 55°04' E 011°02'612.1
2017-Oct-15 03:31N 54°58' E 010°58'612.5
2017-Oct-15 03:00N 54°54' E 010°51'612.4
2017-Oct-15 02:30N 54°48' E 010°49'612.6
2017-Oct-15 02:01N 54°42' E 010°47'612.1
2017-Oct-15 01:30N 54°38' E 010°55'612.0
2017-Oct-15 01:01N 54°36' E 011°05'611.8
2017-Oct-15 00:30N 54°35' E 011°15'612.3
2017-Oct-15 00:01N 54°32' E 011°24'612.4
2017-Oct-14 23:30N 54°29' E 011°34'612.9
2017-Oct-14 23:00N 54°27' E 011°45'713.1
2017-Oct-14 22:30N 54°27' E 011°56'1510.1
2017-Oct-14 21:02N 54°35' E 012°16'0 7.5
2017-Oct-14 21:00N 54°36' E 012°16'510.4
2017-Oct-14 20:30N 54°39' E 012°23'2112.2
2017-Oct-14 18:45N 54°49' E 012°56'3012.8
2017-Oct-14 16:23N 54°60' E 013°45'912.7
2017-Oct-14 15:41N 55°03' E 013°60'313.0
2017-Oct-14 15:29N 55°04' E 014°04'612.9
2017-Oct-14 14:58N 55°09' E 014°12'813.0
2017-Oct-14 14:23N 55°15' E 014°20'812.8
2017-Oct-14 13:47N 55°21' E 014°29'512.7
2017-Oct-14 13:25N 55°24' E 014°34'512.7
2017-Oct-14 13:00N 55°27' E 014°42'712.9
2017-Oct-14 12:29N 55°31' E 014°52'612.7
2017-Oct-14 11:58N 55°34' E 015°02'612.7
2017-Oct-14 11:30N 55°37' E 015°11'612.9
2017-Oct-14 11:01N 55°40' E 015°21'612.8
2017-Oct-14 10:31N 55°43' E 015°31'612.9
2017-Oct-14 10:01N 55°46' E 015°40'612.8
2017-Oct-14 09:31N 55°50' E 015°50'613.0
2017-Oct-14 09:01N 55°53' E 016°00'713.1
2017-Oct-14 08:31N 55°56' E 016°10'713.1
2017-Oct-14 08:01N 55°60' E 016°20'713.2
2017-Oct-14 07:31N 56°03' E 016°31'713.2
2017-Oct-14 07:01N 56°07' E 016°40'813.0
2017-Oct-14 06:22N 56°13' E 016°49'513.1
2017-Oct-14 06:00N 56°18' E 016°52'13112.8
2017-Oct-13 19:49N 58°26' E 017°38'613.4
2017-Oct-13 19:21N 58°32' E 017°35'513.1
2017-Oct-13 19:00N 58°36' E 017°30'510.2
2017-Oct-13 18:30N 58°37' E 017°21'612.7
2017-Oct-13 18:00N 58°38' E 017°09'613.0
2017-Oct-13 17:31N 58°36' E 016°56'612.9
2017-Oct-13 17:00N 58°37' E 016°44'611.6
2017-Oct-13 16:31N 58°38' E 016°33'612.7
2017-Oct-13 16:00N 58°38' E 016°21'3 6.3
2017-Oct-13 15:29N 58°37' E 016°15'0 0.2
2017-Oct-13 14:59N 58°37' E 016°15'0 0.0
2017-Oct-13 14:29N 58°37' E 016°15'0 0.0
2017-Oct-13 13:56N 58°37' E 016°15'0 0.0
2017-Oct-13 13:29N 58°37' E 016°15'0 0.0
2017-Oct-13 12:59N 58°37' E 016°15'0 0.0
2017-Oct-13 12:29N 58°37' E 016°15'0 0.0
2017-Oct-13 11:59N 58°37' E 016°15'0 0.0
2017-Oct-13 11:29N 58°37' E 016°15'0 0.0
2017-Oct-13 10:59N 58°37' E 016°15'0 0.0
2017-Oct-13 10:29N 58°37' E 016°15'0 0.0
2017-Oct-13 09:59N 58°37' E 016°15'0 0.0
2017-Oct-13 09:29N 58°37' E 016°15'0 0.0
2017-Oct-13 08:59N 58°37' E 016°15'0 0.0
2017-Oct-13 08:29N 58°37' E 016°15'0 0.0
2017-Oct-13 07:59N 58°37' E 016°15'0 0.0
2017-Oct-13 07:29N 58°37' E 016°15'0 0.0
2017-Oct-13 06:59N 58°37' E 016°15'0 0.0
2017-Oct-13 06:29N 58°37' E 016°15'0 0.0
2017-Oct-13 05:59N 58°37' E 016°15'0 0.0
2017-Oct-13 05:29N 58°37' E 016°15'0 0.0
2017-Oct-13 04:59N 58°37' E 016°15'0 0.0
2017-Oct-13 04:29N 58°37' E 016°15'0 0.0
2017-Oct-13 03:59N 58°37' E 016°15'0 0.0
2017-Oct-13 03:29N 58°37' E 016°15'0 0.0
2017-Oct-13 02:59N 58°37' E 016°15'0 0.0
2017-Oct-13 02:29N 58°37' E 016°15'0 0.0
2017-Oct-13 01:59N 58°37' E 016°15'0 0.0
2017-Oct-13 01:29N 58°37' E 016°15'0 0.0
2017-Oct-13 00:59N 58°37' E 016°15'0 0.0
2017-Oct-13 00:29N 58°37' E 016°15'0 0.0
2017-Oct-12 23:59N 58°37' E 016°15'0 0.0
2017-Oct-12 23:29N 58°37' E 016°15'0 0.0
2017-Oct-12 22:59N 58°37' E 016°15'0 0.0
2017-Oct-12 22:29N 58°37' E 016°15'0 0.0
2017-Oct-12 21:59N 58°37' E 016°15'0 0.0
2017-Oct-12 21:29N 58°37' E 016°15'0 0.0
2017-Oct-12 20:59N 58°37' E 016°15'0 0.0
2017-Oct-12 20:29N 58°37' E 016°15'0 0.0
2017-Oct-12 19:59N 58°37' E 016°15'0 0.0
2017-Oct-12 19:29N 58°37' E 016°15'0 0.0
2017-Oct-12 18:59N 58°37' E 016°15'0 0.0
2017-Oct-12 18:29N 58°37' E 016°15'0 0.0
2017-Oct-12 17:59N 58°37' E 016°15'0 0.0
2017-Oct-12 17:29N 58°37' E 016°15'0 0.0
2017-Oct-12 16:59N 58°37' E 016°15'0 0.0
2017-Oct-12 16:29N 58°37' E 016°15'0 0.0
2017-Oct-12 15:59N 58°37' E 016°15'0 0.0
2017-Oct-12 15:29N 58°37' E 016°15'0 0.0
2017-Oct-12 14:59N 58°37' E 016°15'0 0.0
2017-Oct-12 14:26N 58°37' E 016°15'0 0.0
2017-Oct-12 13:59N 58°37' E 016°15'0 0.0
2017-Oct-12 13:29N 58°37' E 016°15'0 0.0
2017-Oct-12 12:59N 58°37' E 016°15'0 0.0
2017-Oct-12 12:29N 58°37' E 016°15'0 0.0
2017-Oct-12 11:53N 58°37' E 016°15'0 0.0
2017-Oct-12 11:29N 58°37' E 016°15'0 0.0
2017-Oct-12 10:59N 58°37' E 016°15'0 0.0
2017-Oct-12 10:29N 58°37' E 016°15'0 0.0
2017-Oct-12 09:59N 58°37' E 016°15'0 0.0
2017-Oct-12 09:29N 58°37' E 016°15'0 0.0
2017-Oct-12 08:59N 58°37' E 016°15'0 0.0
2017-Oct-12 08:29N 58°37' E 016°15'0 0.0
2017-Oct-12 07:56N 58°37' E 016°15'0 0.0
2017-Oct-12 07:29N 58°37' E 016°15'0 0.0
2017-Oct-12 06:59N 58°37' E 016°15'0 0.0
2017-Oct-12 06:29N 58°37' E 016°15'0 0.0
2017-Oct-12 05:59N 58°37' E 016°15'0 0.0
2017-Oct-12 05:29N 58°37' E 016°15'0 0.0
2017-Oct-12 04:59N 58°37' E 016°15'0 0.0
2017-Oct-12 04:29N 58°37' E 016°15'0 0.0
2017-Oct-12 03:59N 58°37' E 016°15'0 0.0
2017-Oct-12 03:29N 58°37' E 016°15'0 0.0
2017-Oct-12 02:59N 58°37' E 016°15'0 0.0
2017-Oct-12 02:29N 58°37' E 016°15'0 0.0
2017-Oct-12 01:59N 58°37' E 016°15'0 0.0
2017-Oct-12 01:29N 58°37' E 016°15'0 0.0
2017-Oct-12 00:59N 58°37' E 016°15'0 0.0
2017-Oct-12 00:29N 58°37' E 016°15'0 0.0
2017-Oct-11 23:59N 58°37' E 016°15'0 0.0
2017-Oct-11 23:29N 58°37' E 016°15'0 0.0
2017-Oct-11 22:59N 58°37' E 016°15'0 0.0
2017-Oct-11 22:29N 58°37' E 016°15'0 0.0
2017-Oct-11 21:59N 58°37' E 016°15'0 0.0
2017-Oct-11 21:29N 58°37' E 016°15'0 0.0
2017-Oct-11 20:59N 58°37' E 016°15'0 0.0
2017-Oct-11 20:29N 58°37' E 016°15'0 0.0
2017-Oct-11 19:59N 58°37' E 016°15'0 0.0
2017-Oct-11 19:29N 58°37' E 016°15'0 0.0
2017-Oct-11 18:59N 58°37' E 016°15'0 0.0
2017-Oct-11 18:29N 58°37' E 016°15'0 0.0
2017-Oct-11 17:59N 58°37' E 016°15'0 0.0
2017-Oct-11 17:29N 58°37' E 016°15'0 0.0
2017-Oct-11 16:59N 58°37' E 016°15'0 0.0
2017-Oct-10 23:59N 58°37' E 016°15'0 0.0
2017-Oct-10 23:29N 58°37' E 016°15'0 0.0
2017-Oct-10 22:59N 58°37' E 016°15'0 0.0
2017-Oct-10 22:29N 58°37' E 016°15'0 0.0
2017-Oct-10 21:59N 58°37' E 016°15'0 0.0
2017-Oct-10 21:29N 58°37' E 016°15'0 0.0
2017-Oct-10 20:59N 58°37' E 016°15'0 0.0
2017-Oct-10 20:29N 58°37' E 016°15'  
Track history (hours):
 
Tides and Currents Weather Stations Pressure Air Temp Water Temp Dewpoint Dewpoint Depression Visibility Wind Speed Wind Dir Waves Ship Positions

Sw Cap Ferrat 1

Last reported at 2017-Oct-20 20:00 UTC. Time now 2017-Oct-20 20:08 UTC.
Position N 53°29' W 003°25'.

Length 183 m; draft 10.1 m.

Type: Tanker. MMSI: 374419000.

Date/timePositionNaut miles runAvg speedWind from/ knotsBaromVisibWave heightAir tempDewpointWater temp
2017-Oct-20 20:00N 53°29' W 003°25'0 0.2
2017-Oct-20 19:27N 53°29' W 003°25'0 0.1
2017-Oct-20 19:00N 53°29' W 003°25'0 0.1
2017-Oct-20 18:27N 53°29' W 003°25'0 0.0
2017-Oct-20 17:54N 53°29' W 003°25'0 1.3
2017-Oct-20 17:30N 53°29' W 003°26'510.2
2017-Oct-20 17:00N 53°30' W 003°35'612.8
2017-Oct-20 16:30N 53°31' W 003°45'612.3
2017-Oct-20 16:00N 53°32' W 003°56'5112.5
2017-Oct-20 11:55N 53°58' W 005°10'613.3
2017-Oct-20 11:30N 54°04' W 005°09'713.3
2017-Oct-20 11:00N 54°10' W 005°09'713.8
2017-Oct-20 10:30N 54°17' W 005°09'714.1
2017-Oct-20 10:01N 54°24' W 005°08'714.5
2017-Oct-20 09:30N 54°31' W 005°13'815.6
2017-Oct-20 09:01N 54°37' W 005°21'815.6
2017-Oct-20 08:31N 54°43' W 005°30'714.2
2017-Oct-20 08:00N 54°42' W 005°42'510.2
2017-Oct-20 07:30N 54°40' W 005°50'3 5.6
2017-Oct-20 07:00N 54°38' W 005°53'0 0.1
2017-Oct-20 04:17N 54°38' W 005°53'0 0.0
2017-Oct-20 02:50N 54°38' W 005°53'0 0.0
2017-Oct-20 02:26N 54°38' W 005°53'0 0.0
2017-Oct-20 01:44N 54°38' W 005°53'0 0.0
2017-Oct-20 01:23N 54°38' W 005°53'0 0.0
2017-Oct-19 23:26N 54°38' W 005°53'0 0.0
2017-Oct-19 21:56N 54°38' W 005°53'0 0.0
2017-Oct-19 18:56N 54°38' W 005°53'0 0.0
2017-Oct-19 17:38N 54°38' W 005°53'0 0.0
2017-Oct-19 16:59N 54°38' W 005°53'0 0.0
2017-Oct-19 16:11N 54°38' W 005°53'0 0.0
2017-Oct-19 12:59N 54°38' W 005°53'0 0.0
2017-Oct-19 10:11N 54°38' W 005°53'0 0.0
2017-Oct-19 09:44N 54°38' W 005°53'0 0.0
2017-Oct-19 09:29N 54°38' W 005°53'0 0.0
2017-Oct-19 08:59N 54°38' W 005°53'0 0.0
2017-Oct-19 08:29N 54°38' W 005°53'0 0.0
2017-Oct-19 06:11N 54°38' W 005°53'0 0.0
2017-Oct-19 04:05N 54°38' W 005°53'0 0.0
2017-Oct-19 03:05N 54°38' W 005°53'0 0.0
2017-Oct-19 00:35N 54°38' W 005°53'0 0.0
2017-Oct-19 00:11N 54°38' W 005°53'0 0.0
2017-Oct-18 20:05N 54°38' W 005°53'0 0.0
2017-Oct-18 20:00N 54°38' W 005°53'1 1.8
2017-Oct-18 19:30N 54°39' W 005°52'4 8.6
2017-Oct-18 19:00N 54°42' W 005°47'5 9.5
2017-Oct-18 18:30N 54°44' W 005°39'1 1.6
2017-Oct-18 17:59N 54°44' W 005°39'0 0.1
2017-Oct-18 17:29N 54°45' W 005°39'0 0.0
2017-Oct-18 16:59N 54°45' W 005°39'0 0.1
2017-Oct-18 16:29N 54°45' W 005°39'0 0.0
2017-Oct-18 15:56N 54°45' W 005°39'0 0.0
2017-Oct-18 15:29N 54°45' W 005°39'1 1.2
2017-Oct-18 15:00N 54°45' W 005°38'10 9.9
2017-Oct-18 14:00N 54°55' W 005°37'510.6
2017-Oct-18 13:30N 54°60' W 005°41'510.2
2017-Oct-18 13:00N 55°04' W 005°46'5 9.8
2017-Oct-18 12:30N 55°08' W 005°51'5 9.7
2017-Oct-18 12:01N 55°12' W 005°56'5 9.8
2017-Oct-18 11:31N 55°16' W 006°01'611.1
2017-Oct-18 11:00N 55°20' W 006°07'611.7
2017-Oct-18 10:30N 55°22' W 006°16'612.6
2017-Oct-18 10:00N 55°25' W 006°26'612.4
2017-Oct-18 09:30N 55°28' W 006°36'713.3
2017-Oct-18 08:58N 55°30' W 006°48'613.6
2017-Oct-18 08:30N 55°33' W 006°58'713.2
2017-Oct-18 08:00N 55°39' W 007°03'1013.6
2017-Oct-18 07:18N 55°48' W 007°09'513.6
2017-Oct-18 06:58N 55°52' W 007°12'21711.7
2017-Oct-17 12:31N 59°10' W 004°28'010.2
2017-Oct-17 12:30N 59°10' W 004°28'510.4
2017-Oct-17 12:00N 59°12' W 004°19'510.4
2017-Oct-17 11:30N 59°15' W 004°10'612.0
2017-Oct-17 11:00N 59°18' W 003°59'612.6
2017-Oct-17 10:30N 59°21' W 003°48'612.7
2017-Oct-17 10:00N 59°24' W 003°37'28412.5
2017-Oct-16 11:11N 57°60' E 005°05'2612.1
2017-Oct-16 09:05N 57°47' E 005°47'112.1
2017-Oct-16 08:59N 57°47' E 005°49'612.1
2017-Oct-16 08:30N 57°44' E 005°59'912.3
2017-Oct-16 07:48N 57°40' E 006°13'812.1
2017-Oct-16 07:08N 57°36' E 006°26'212.2
2017-Oct-16 06:59N 57°36' E 006°29'912.2
2017-Oct-16 06:17N 57°32' E 006°44'611.9
2017-Oct-16 05:47N 57°32' E 006°55'412.1
2017-Oct-16 05:29N 57°32' E 007°02'1211.8
2017-Oct-16 04:28N 57°32' E 007°24'611.8
2017-Oct-16 03:58N 57°32' E 007°35'3911.2
2017-Oct-16 00:31N 57°42' E 008°45'1511.1
2017-Oct-15 23:09N 57°48' E 009°12'1111.0
2017-Oct-15 22:09N 57°50' E 009°32'211.2
2017-Oct-15 21:58N 57°50' E 009°36'511.0
2017-Oct-15 21:29N 57°51' E 009°46'611.4
2017-Oct-15 21:00N 57°52' E 009°56'611.4
2017-Oct-15 20:29N 57°53' E 010°07'611.6
2017-Oct-15 20:00N 57°53' E 010°18'612.0
2017-Oct-15 19:30N 57°54' E 010°28'611.3
2017-Oct-15 19:00N 57°52' E 010°38'712.7
2017-Oct-15 18:29N 57°47' E 010°47'510.9
2017-Oct-15 18:00N 57°44' E 010°55'612.6
2017-Oct-15 17:30N 57°39' E 011°03'713.1
2017-Oct-15 17:00N 57°35' E 011°12'713.4
2017-Oct-15 16:30N 57°30' E 011°21'612.6
2017-Oct-15 16:00N 57°25' E 011°27'713.3
2017-Oct-15 15:30N 57°19' E 011°32'713.2
2017-Oct-15 15:00N 57°13' E 011°36'1312.8
2017-Oct-15 14:00N 57°00' E 011°44'4212.4
2017-Oct-15 10:37N 56°20' E 011°26'414.0
2017-Oct-15 10:18N 56°16' E 011°23'1013.6
2017-Oct-15 09:34N 56°08' E 011°12'213.8
2017-Oct-15 09:27N 56°06' E 011°10'4511.4
2017-Oct-15 05:29N 55°22' E 011°02'712.1
2017-Oct-15 04:52N 55°14' E 011°06'411.8
2017-Oct-15 04:30N 55°10' E 011°04'612.6
2017-Oct-15 04:00N 55°04' E 011°02'612.1
2017-Oct-15 03:31N 54°58' E 010°58'612.5
2017-Oct-15 03:00N 54°54' E 010°51'612.4
2017-Oct-15 02:30N 54°48' E 010°49'612.6
2017-Oct-15 02:01N 54°42' E 010°47'612.1
2017-Oct-15 01:30N 54°38' E 010°55'612.0
2017-Oct-15 01:01N 54°36' E 011°05'611.8
2017-Oct-15 00:30N 54°35' E 011°15'612.3
2017-Oct-15 00:01N 54°32' E 011°24'612.4
2017-Oct-14 23:30N 54°29' E 011°34'612.9
2017-Oct-14 23:00N 54°27' E 011°45'713.1
2017-Oct-14 22:30N 54°27' E 011°56'1510.1
2017-Oct-14 21:02N 54°35' E 012°16'0 7.5
2017-Oct-14 21:00N 54°36' E 012°16'510.4
2017-Oct-14 20:30N 54°39' E 012°23'2112.2
2017-Oct-14 18:45N 54°49' E 012°56'3012.8
2017-Oct-14 16:23N 54°60' E 013°45'912.7
2017-Oct-14 15:41N 55°03' E 013°60'313.0
2017-Oct-14 15:29N 55°04' E 014°04'612.9
2017-Oct-14 14:58N 55°09' E 014°12'813.0
2017-Oct-14 14:23N 55°15' E 014°20'812.8
2017-Oct-14 13:47N 55°21' E 014°29'512.7
2017-Oct-14 13:25N 55°24' E 014°34'512.7
2017-Oct-14 13:00N 55°27' E 014°42'712.9
2017-Oct-14 12:29N 55°31' E 014°52'612.7
2017-Oct-14 11:58N 55°34' E 015°02'612.7
2017-Oct-14 11:30N 55°37' E 015°11'612.9
2017-Oct-14 11:01N 55°40' E 015°21'612.8
2017-Oct-14 10:31N 55°43' E 015°31'612.9
2017-Oct-14 10:01N 55°46' E 015°40'612.8
2017-Oct-14 09:31N 55°50' E 015°50'613.0
2017-Oct-14 09:01N 55°53' E 016°00'713.1
2017-Oct-14 08:31N 55°56' E 016°10'713.1
2017-Oct-14 08:01N 55°60' E 016°20'713.2
2017-Oct-14 07:31N 56°03' E 016°31'713.2
2017-Oct-14 07:01N 56°07' E 016°40'813.0
2017-Oct-14 06:22N 56°13' E 016°49'513.1
2017-Oct-14 06:00N 56°18' E 016°52'13112.8
2017-Oct-13 19:49N 58°26' E 017°38'613.4
2017-Oct-13 19:21N 58°32' E 017°35'513.1
2017-Oct-13 19:00N 58°36' E 017°30'510.2
2017-Oct-13 18:30N 58°37' E 017°21'612.7
2017-Oct-13 18:00N 58°38' E 017°09'613.0
2017-Oct-13 17:31N 58°36' E 016°56'612.9
2017-Oct-13 17:00N 58°37' E 016°44'611.6
2017-Oct-13 16:31N 58°38' E 016°33'612.7
2017-Oct-13 16:00N 58°38' E 016°21'3 6.3
2017-Oct-13 15:29N 58°37' E 016°15'0 0.2
2017-Oct-13 14:59N 58°37' E 016°15'0 0.0
2017-Oct-13 14:29N 58°37' E 016°15'0 0.0
2017-Oct-13 13:56N 58°37' E 016°15'0 0.0
2017-Oct-13 13:29N 58°37' E 016°15'0 0.0
2017-Oct-13 12:59N 58°37' E 016°15'0 0.0
2017-Oct-13 12:29N 58°37' E 016°15'0 0.0
2017-Oct-13 11:59N 58°37' E 016°15'0 0.0
2017-Oct-13 11:29N 58°37' E 016°15'0 0.0
2017-Oct-13 10:59N 58°37' E 016°15'0 0.0
2017-Oct-13 10:29N 58°37' E 016°15'0 0.0
2017-Oct-13 09:59N 58°37' E 016°15'0 0.0
2017-Oct-13 09:29N 58°37' E 016°15'0 0.0
2017-Oct-13 08:59N 58°37' E 016°15'0 0.0
2017-Oct-13 08:29N 58°37' E 016°15'0 0.0
2017-Oct-13 07:59N 58°37' E 016°15'0 0.0
2017-Oct-13 07:29N 58°37' E 016°15'0 0.0
2017-Oct-13 06:59N 58°37' E 016°15'0 0.0
2017-Oct-13 06:29N 58°37' E 016°15'0 0.0
2017-Oct-13 05:59N 58°37' E 016°15'0 0.0
2017-Oct-13 05:29N 58°37' E 016°15'0 0.0
2017-Oct-13 04:59N 58°37' E 016°15'0 0.0
2017-Oct-13 04:29N 58°37' E 016°15'0 0.0
2017-Oct-13 03:59N 58°37' E 016°15'0 0.0
2017-Oct-13 03:29N 58°37' E 016°15'0 0.0
2017-Oct-13 02:59N 58°37' E 016°15'0 0.0
2017-Oct-13 02:29N 58°37' E 016°15'0 0.0
2017-Oct-13 01:59N 58°37' E 016°15'0 0.0
2017-Oct-13 01:29N 58°37' E 016°15'0 0.0
2017-Oct-13 00:59N 58°37' E 016°15'0 0.0
2017-Oct-13 00:29N 58°37' E 016°15'0 0.0
2017-Oct-12 23:59N 58°37' E 016°15'0 0.0
2017-Oct-12 23:29N 58°37' E 016°15'0 0.0
2017-Oct-12 22:59N 58°37' E 016°15'0 0.0
2017-Oct-12 22:29N 58°37' E 016°15'0 0.0
2017-Oct-12 21:59N 58°37' E 016°15'0 0.0
2017-Oct-12 21:29N 58°37' E 016°15'0 0.0
2017-Oct-12 20:59N 58°37' E 016°15'0 0.0
2017-Oct-12 20:29N 58°37' E 016°15'0 0.0
2017-Oct-12 19:59N 58°37' E 016°15'0 0.0
2017-Oct-12 19:29N 58°37' E 016°15'0 0.0
2017-Oct-12 18:59N 58°37' E 016°15'0 0.0
2017-Oct-12 18:29N 58°37' E 016°15'0 0.0
2017-Oct-12 17:59N 58°37' E 016°15'0 0.0
2017-Oct-12 17:29N 58°37' E 016°15'0 0.0
2017-Oct-12 16:59N 58°37' E 016°15'0 0.0
2017-Oct-12 16:29N 58°37' E 016°15'0 0.0
2017-Oct-12 15:59N 58°37' E 016°15'0 0.0
2017-Oct-12 15:29N 58°37' E 016°15'0 0.0
2017-Oct-12 14:59N 58°37' E 016°15'0 0.0
2017-Oct-12 14:26N 58°37' E 016°15'0 0.0
2017-Oct-12 13:59N 58°37' E 016°15'0 0.0
2017-Oct-12 13:29N 58°37' E 016°15'0 0.0
2017-Oct-12 12:59N 58°37' E 016°15'0 0.0
2017-Oct-12 12:29N 58°37' E 016°15'0 0.0
2017-Oct-12 11:53N 58°37' E 016°15'0 0.0
2017-Oct-12 11:29N 58°37' E 016°15'0 0.0
2017-Oct-12 10:59N 58°37' E 016°15'0 0.0
2017-Oct-12 10:29N 58°37' E 016°15'0 0.0
2017-Oct-12 09:59N 58°37' E 016°15'0 0.0
2017-Oct-12 09:29N 58°37' E 016°15'0 0.0
2017-Oct-12 08:59N 58°37' E 016°15'0 0.0
2017-Oct-12 08:29N 58°37' E 016°15'0 0.0
2017-Oct-12 07:56N 58°37' E 016°15'0 0.0
2017-Oct-12 07:29N 58°37' E 016°15'0 0.0
2017-Oct-12 06:59N 58°37' E 016°15'0 0.0
2017-Oct-12 06:29N 58°37' E 016°15'0 0.0
2017-Oct-12 05:59N 58°37' E 016°15'0 0.0
2017-Oct-12 05:29N 58°37' E 016°15'0 0.0
2017-Oct-12 04:59N 58°37' E 016°15'0 0.0
2017-Oct-12 04:29N 58°37' E 016°15'0 0.0
2017-Oct-12 03:59N 58°37' E 016°15'0 0.0
2017-Oct-12 03:29N 58°37' E 016°15'0 0.0
2017-Oct-12 02:59N 58°37' E 016°15'0 0.0
2017-Oct-12 02:29N 58°37' E 016°15'0 0.0
2017-Oct-12 01:59N 58°37' E 016°15'0 0.0
2017-Oct-12 01:29N 58°37' E 016°15'0 0.0
2017-Oct-12 00:59N 58°37' E 016°15'0 0.0
2017-Oct-12 00:29N 58°37' E 016°15'0 0.0
2017-Oct-11 23:59N 58°37' E 016°15'0 0.0
2017-Oct-11 23:29N 58°37' E 016°15'0 0.0
2017-Oct-11 22:59N 58°37' E 016°15'0 0.0
2017-Oct-11 22:29N 58°37' E 016°15'0 0.0
2017-Oct-11 21:59N 58°37' E 016°15'0 0.0
2017-Oct-11 21:29N 58°37' E 016°15'0 0.0
2017-Oct-11 20:59N 58°37' E 016°15'0 0.0
2017-Oct-11 20:29N 58°37' E 016°15'0 0.0
2017-Oct-11 19:59N 58°37' E 016°15'0 0.0
2017-Oct-11 19:29N 58°37' E 016°15'0 0.0
2017-Oct-11 18:59N 58°37' E 016°15'0 0.0
2017-Oct-11 18:29N 58°37' E 016°15'0 0.0
2017-Oct-11 17:59N 58°37' E 016°15'0 0.0
2017-Oct-11 17:29N 58°37' E 016°15'0 0.0
2017-Oct-11 16:59N 58°37' E 016°15'0 0.0
2017-Oct-10 23:59N 58°37' E 016°15'0 0.0
2017-Oct-10 23:29N 58°37' E 016°15'0 0.0
2017-Oct-10 22:59N 58°37' E 016°15'0 0.0
2017-Oct-10 22:29N 58°37' E 016°15'0 0.0
2017-Oct-10 21:59N 58°37' E 016°15'0 0.0
2017-Oct-10 21:29N 58°37' E 016°15'0 0.0
2017-Oct-10 20:59N 58°37' E 016°15'0 0.0
2017-Oct-10 20:29N 58°37' E 016°15'  

Dump ship's entire track history